Leisure City, Florida
Current Conditions -  °F | °C
As of 10:58 PM on Sunday 21 Dec 2014 (Local Time) from KHST Reporting Station
Clear Clear  
Wind Chill: 21°   Ceiling: Unl
Heat Index: 21°   Visibility: 10mi
Dew Point: 19°   Wind: 5mph
Humidity: 84%   Direction: 120°ESE
Pressure: 30.04"   Gusts: NA
Location:  25.5°N, 80.43°W
Report Text: KHST 220358Z AUTO 12004KT 10SM CLR 21/19 A3004 RMK AO2 SLP176 T02130185 $
Loading
Personal Weather Stations






























Interactive Weather Map New forecast layout! Learn more

10-Day Weather Forecast

Advertisements
Track Severe Weather on mobile